Flight Track Log - Related Links

Times and Time Zones

All times are in EDT time to prevent confusion due to time zone crossing. See the N459TM flight status page for this flight to view local times or setup timezone preferences in your user account.

Time Position Orientation Groundspeed Altitude Reporting Facility
EDT Latitude Longitude Course Direction KTS MPH feet Rate Location/Type
Fri 03:10:17 PM 32.5833 -84.5667 157° South 139 160 10,900  Level Atlanta TRACON
Fri 03:11:17 PM 32.5500 -84.5500 112° Southeast 143 165 11,100 150 Climbing Atlanta TRACON
Fri 03:12:17 PM 32.5333 -84.5000 90° East 151 174 11,200 100 Climbing Atlanta TRACON
Fri 03:13:17 PM 32.5333 -84.4500 68° East 156 180 11,300 50 Climbing Atlanta TRACON
Fri 03:14:17 PM 32.5500 -84.4000 68° East 159 183 11,300  Level Atlanta TRACON
Fri 03:15:17 PM 32.5667 -84.3500 90° East 164 189 11,300  Level Atlanta TRACON
Fri 03:16:18 PM 32.5667 -84.3000 71° East 167 192 11,300  Level Atlanta TRACON
Fri 03:17:12 PM 32.5792 -84.2558 78° East 165 190 11,300 53 Level Atlanta Center
Fri 03:18:12 PM 32.5897 -84.1992 71° East 165 190 11,400 50 Climbing Atlanta Center
Fri 03:19:12 PM 32.6044 -84.1472 80° East 165 190 11,400  Level Atlanta Center
Fri 03:20:12 PM 32.6128 -84.0931 80° East 165 190 11,400  Level Atlanta Center
Fri 03:21:12 PM 32.6211 -84.0364 74° East 165 190 11,400  Level Atlanta Center
Fri 03:22:12 PM 32.6336 -83.9844 77° East 160 184 11,400  Level Atlanta Center
Fri 03:23:12 PM 32.6442 -83.9303 76° East 160 184 11,400  Level Atlanta Center
Fri 03:24:12 PM 32.6544 -83.8808 78° East 160 184 11,400  Level Atlanta Center
Fri 03:25:12 PM 32.6647 -83.8242 74° East 160 184 11,400  Level Atlanta Center
Fri 03:26:12 PM 32.6772 -83.7722 75° East 160 184 11,400  Level Atlanta Center
Fri 03:27:12 PM 32.6897 -83.7181 72° East 160 184 11,400  Level Atlanta Center
Fri 03:28:12 PM 32.7042 -83.6661 79° East 160 184 11,400  Level Atlanta Center
Fri 03:29:12 PM 32.7122 -83.6167 74° East 160 184 11,400  Level Atlanta Center
Fri 03:30:12 PM 32.7247 -83.5647 80° East 160 184 11,400  Level Atlanta Center
Fri 03:31:12 PM 32.7328 -83.5081 77° East 165 190 11,400  Level Atlanta Center
Fri 03:32:12 PM 32.7431 -83.4536 74° East 160 184 11,400 -50 Level Atlanta Center
Fri 03:33:12 PM 32.7553 -83.4017 74° East 160 184 11,300 -50 Descending Atlanta Center
Fri 03:34:12 PM 32.7675 -83.3519 77° East 160 184 11,300 50 Level Atlanta Center
Fri 03:35:12 PM 32.7775 -83.3000 77° East 160 184 11,400  Climbing Atlanta Center
Fri 03:36:12 PM 32.7878 -83.2481 75° East 160 184 11,300  Descending Atlanta Center
Fri 03:37:12 PM 32.7997 -83.1936 74° East 160 184 11,400 50 Climbing Atlanta Center
Fri 03:38:12 PM 32.8119 -83.1442 75° East 160 184 11,400  Level Atlanta Center
Fri 03:39:12 PM 32.8222 -83.0969 77° East 160 184 11,400  Level Atlanta Center
Fri 03:40:12 PM 32.8322 -83.0450 72° East 160 184 11,400 -300 Level Atlanta Center
Fri 03:41:12 PM 32.8464 -82.9931 74° East 160 184 10,800 -550 Descending Atlanta Center
Fri 03:42:12 PM 32.8606 -82.9358 74° East 171 197 10,300 -550 Descending Atlanta Center
Fri 03:43:12 PM 32.8744 -82.8764 79° East 171 197 9,700 -550 Descending Atlanta Center
Fri 03:44:12 PM 32.8844 -82.8169 79° East 171 197 9,200 -550 Descending Atlanta Center
Fri 03:45:12 PM 32.8942 -82.7597 91° East 176 203 8,600 -650 Descending Atlanta Center
Fri 03:46:12 PM 32.8936 -82.6981 84° East 183 211 7,900 -650 Descending Atlanta Center
Fri 03:47:12 PM 32.8992 -82.6386 66° East 183 211 7,300 -700 Descending Atlanta Center
Fri 03:48:12 PM 32.9194 -82.5839 74° East 178 205 6,500 -750 Descending Atlanta Center
Fri 03:49:12 PM 32.9333 -82.5242 69° East 178 205 5,800 -800 Descending Atlanta Center
Fri 03:50:12 PM 32.9514 -82.4669 72° East 178 205 4,900 -900 Descending Atlanta Center
Fri 03:51:12 PM 32.9672 -82.4097 76° East 178 205 4,000 -850 Descending Atlanta Center
Fri 03:52:12 PM 32.9792 -82.3525 80° East 178 205 3,200 -800 Descending Atlanta Center
Fri 04:00:00 PM 33.0333 -82.0000 344° North  Level FlightAware Approximate
Fri 04:01:00 PM 33.0820 -82.0164 344° North  Level Estimated

Login

Don't have an account? Register now (free) for customized features, flight alerts, and more!